sensor_id;sensor_type;location;lat;lon;timestamp;P1;durP1;ratioP1;P2;durP2;ratioP2
20458;SDS011;10388;52.314;7.938;2023-05-27T00:09:56;11.43;;;4.50;;
20458;SDS011;10388;52.314;7.938;2023-05-27T00:12:27;9.50;;;4.60;;
20458;SDS011;10388;52.314;7.938;2023-05-27T00:14:58;10.57;;;5.80;;
20458;SDS011;10388;52.314;7.938;2023-05-27T00:17:28;12.83;;;4.67;;
20458;SDS011;10388;52.314;7.938;2023-05-27T00:19:59;12.20;;;6.00;;
20458;SDS011;10388;52.314;7.938;2023-05-27T00:22:36;8.73;;;5.00;;
20458;SDS011;10388;52.314;7.938;2023-05-27T00:25:07;10.87;;;4.70;;
20458;SDS011;10388;52.314;7.938;2023-05-27T00:27:37;11.80;;;5.17;;
20458;SDS011;10388;52.314;7.938;2023-05-27T00:30:08;9.17;;;5.10;;
20458;SDS011;10388;52.314;7.938;2023-05-27T00:32:39;12.40;;;4.80;;
20458;SDS011;10388;52.314;7.938;2023-05-27T00:35:10;11.50;;;4.77;;
20458;SDS011;10388;52.314;7.938;2023-05-27T00:37:41;9.97;;;4.40;;
20458;SDS011;10388;52.314;7.938;2023-05-27T00:40:11;10.47;;;4.97;;
20458;SDS011;10388;52.314;7.938;2023-05-27T00:42:45;9.63;;;5.20;;
20458;SDS011;10388;52.314;7.938;2023-05-27T00:45:15;9.53;;;4.97;;
20458;SDS011;10388;52.314;7.938;2023-05-27T00:47:46;9.70;;;5.17;;
20458;SDS011;10388;52.314;7.938;2023-05-27T00:50:17;9.60;;;4.70;;
20458;SDS011;10388;52.314;7.938;2023-05-27T00:52:48;13.27;;;5.10;;
20458;SDS011;10388;52.314;7.938;2023-05-27T00:55:19;8.30;;;4.63;;
20458;SDS011;10388;52.314;7.938;2023-05-27T00:57:49;8.43;;;5.03;;
20458;SDS011;10388;52.314;7.938;2023-05-27T01:00:23;8.33;;;5.27;;
20458;SDS011;10388;52.314;7.938;2023-05-27T01:02:54;11.30;;;5.03;;
20458;SDS011;10388;52.314;7.938;2023-05-27T01:05:25;9.43;;;5.10;;
20458;SDS011;10388;52.314;7.938;2023-05-27T01:10:56;12.03;;;5.20;;
20458;SDS011;10388;52.314;7.938;2023-05-27T01:13:39;11.17;;;5.70;;
20458;SDS011;10388;52.314;7.938;2023-05-27T01:16:14;11.43;;;5.30;;
20458;SDS011;10388;52.314;7.938;2023-05-27T01:18:46;11.53;;;5.77;;
20458;SDS011;10388;52.314;7.938;2023-05-27T01:21:20;14.03;;;5.70;;
20458;SDS011;10388;52.314;7.938;2023-05-27T01:23:54;9.60;;;5.67;;
20458;SDS011;10388;52.314;7.938;2023-05-27T01:26:32;11.63;;;5.50;;
20458;SDS011;10388;52.314;7.938;2023-05-27T01:29:02;8.67;;;5.20;;
20458;SDS011;10388;52.314;7.938;2023-05-27T01:31:35;8.27;;;4.83;;
20458;SDS011;10388;52.314;7.938;2023-05-27T01:34:25;11.20;;;5.17;;
20458;SDS011;10388;52.314;7.938;2023-05-27T01:37:04;14.17;;;5.67;;
20458;SDS011;10388;52.314;7.938;2023-05-27T01:39:38;12.70;;;4.50;;
20458;SDS011;10388;52.314;7.938;2023-05-27T01:42:10;10.03;;;4.90;;
20458;SDS011;10388;52.314;7.938;2023-05-27T01:44:41;12.43;;;4.93;;
20458;SDS011;10388;52.314;7.938;2023-05-27T01:47:12;10.10;;;4.33;;
20458;SDS011;10388;52.314;7.938;2023-05-27T01:49:43;8.20;;;4.20;;
20458;SDS011;10388;52.314;7.938;2023-05-27T01:52:14;9.87;;;4.43;;
20458;SDS011;10388;52.314;7.938;2023-05-27T01:54:44;9.83;;;4.50;;
20458;SDS011;10388;52.314;7.938;2023-05-27T01:57:15;6.77;;;4.67;;
20458;SDS011;10388;52.314;7.938;2023-05-27T01:59:47;7.77;;;4.30;;
20458;SDS011;10388;52.314;7.938;2023-05-27T02:02:17;8.40;;;4.93;;
20458;SDS011;10388;52.314;7.938;2023-05-27T02:04:48;9.97;;;4.30;;
20458;SDS011;10388;52.314;7.938;2023-05-27T02:07:18;8.13;;;4.70;;
20458;SDS011;10388;52.314;7.938;2023-05-27T02:09:49;7.83;;;4.33;;
20458;SDS011;10388;52.314;7.938;2023-05-27T02:12:20;10.47;;;4.40;;
20458;SDS011;10388;52.314;7.938;2023-05-27T02:14:50;12.33;;;4.40;;
20458;SDS011;10388;52.314;7.938;2023-05-27T02:17:21;6.17;;;4.23;;
20458;SDS011;10388;52.314;7.938;2023-05-27T02:19:54;6.63;;;4.17;;
20458;SDS011;10388;52.314;7.938;2023-05-27T02:22:25;7.60;;;4.50;;
20458;SDS011;10388;52.314;7.938;2023-05-27T02:24:56;9.33;;;4.83;;
20458;SDS011;10388;52.314;7.938;2023-05-27T02:27:27;7.77;;;4.37;;
20458;SDS011;10388;52.314;7.938;2023-05-27T02:29:57;12.27;;;4.50;;
20458;SDS011;10388;52.314;7.938;2023-05-27T02:32:28;8.80;;;4.47;;
20458;SDS011;10388;52.314;7.938;2023-05-27T02:34:58;8.03;;;4.23;;
20458;SDS011;10388;52.314;7.938;2023-05-27T02:37:29;7.83;;;4.70;;
20458;SDS011;10388;52.314;7.938;2023-05-27T02:39:59;7.70;;;4.47;;
20458;SDS011;10388;52.314;7.938;2023-05-27T02:42:30;13.10;;;5.10;;
20458;SDS011;10388;52.314;7.938;2023-05-27T02:45:00;10.23;;;5.43;;
20458;SDS011;10388;52.314;7.938;2023-05-27T02:47:31;12.67;;;5.03;;
20458;SDS011;10388;52.314;7.938;2023-05-27T02:50:01;10.60;;;4.60;;
20458;SDS011;10388;52.314;7.938;2023-05-27T02:52:32;7.60;;;4.50;;
20458;SDS011;10388;52.314;7.938;2023-05-27T02:55:03;13.03;;;5.83;;
20458;SDS011;10388;52.314;7.938;2023-05-27T02:57:34;13.93;;;4.60;;
20458;SDS011;10388;52.314;7.938;2023-05-27T03:00:05;11.00;;;5.43;;
20458;SDS011;10388;52.314;7.938;2023-05-27T03:02:38;10.20;;;5.63;;
20458;SDS011;10388;52.314;7.938;2023-05-27T03:05:09;10.50;;;4.57;;
20458;SDS011;10388;52.314;7.938;2023-05-27T03:07:40;8.43;;;4.47;;
20458;SDS011;10388;52.314;7.938;2023-05-27T03:10:11;10.13;;;4.63;;
20458;SDS011;10388;52.314;7.938;2023-05-27T03:12:41;8.93;;;4.60;;
20458;SDS011;10388;52.314;7.938;2023-05-27T03:15:12;10.03;;;4.87;;
20458;SDS011;10388;52.314;7.938;2023-05-27T03:17:42;10.10;;;4.90;;
20458;SDS011;10388;52.314;7.938;2023-05-27T03:20:13;10.87;;;4.50;;
20458;SDS011;10388;52.314;7.938;2023-05-27T03:22:43;8.07;;;4.40;;
20458;SDS011;10388;52.314;7.938;2023-05-27T03:25:14;14.43;;;5.87;;
20458;SDS011;10388;52.314;7.938;2023-05-27T03:27:45;10.37;;;5.03;;
20458;SDS011;10388;52.314;7.938;2023-05-27T03:30:16;8.90;;;5.07;;
20458;SDS011;10388;52.314;7.938;2023-05-27T03:32:46;11.47;;;5.27;;
20458;SDS011;10388;52.314;7.938;2023-05-27T03:35:17;10.40;;;5.40;;
20458;SDS011;10388;52.314;7.938;2023-05-27T03:37:47;10.40;;;5.60;;
20458;SDS011;10388;52.314;7.938;2023-05-27T03:40:18;10.60;;;5.83;;
20458;SDS011;10388;52.314;7.938;2023-05-27T03:42:49;13.57;;;5.53;;
20458;SDS011;10388;52.314;7.938;2023-05-27T03:45:19;11.93;;;5.40;;
20458;SDS011;10388;52.314;7.938;2023-05-27T03:47:50;10.47;;;5.03;;
20458;SDS011;10388;52.314;7.938;2023-05-27T03:50:20;10.43;;;5.10;;
20458;SDS011;10388;52.314;7.938;2023-05-27T03:52:51;9.50;;;4.93;;
20458;SDS011;10388;52.314;7.938;2023-05-27T03:55:21;8.33;;;4.77;;
20458;SDS011;10388;52.314;7.938;2023-05-27T03:57:52;9.63;;;4.93;;
20458;SDS011;10388;52.314;7.938;2023-05-27T04:00:22;10.40;;;5.50;;
20458;SDS011;10388;52.314;7.938;2023-05-27T04:02:53;10.17;;;5.10;;
20458;SDS011;10388;52.314;7.938;2023-05-27T04:05:23;8.27;;;4.43;;
20458;SDS011;10388;52.314;7.938;2023-05-27T04:07:55;9.70;;;4.77;;
20458;SDS011;10388;52.314;7.938;2023-05-27T04:10:26;8.53;;;4.03;;
20458;SDS011;10388;52.314;7.938;2023-05-27T04:12:56;8.83;;;4.53;;
20458;SDS011;10388;52.314;7.938;2023-05-27T04:15:27;10.90;;;4.93;;
20458;SDS011;10388;52.314;7.938;2023-05-27T04:17:57;10.33;;;4.17;;
20458;SDS011;10388;52.314;7.938;2023-05-27T04:20:34;8.53;;;4.53;;
20458;SDS011;10388;52.314;7.938;2023-05-27T04:23:06;8.43;;;4.03;;
20458;SDS011;10388;52.314;7.938;2023-05-27T04:25:37;12.97;;;4.80;;
20458;SDS011;10388;52.314;7.938;2023-05-27T04:28:09;8.90;;;4.57;;
20458;SDS011;10388;52.314;7.938;2023-05-27T04:30:40;7.97;;;4.70;;
20458;SDS011;10388;52.314;7.938;2023-05-27T04:33:10;9.90;;;4.27;;
20458;SDS011;10388;52.314;7.938;2023-05-27T04:35:41;11.07;;;4.77;;
20458;SDS011;10388;52.314;7.938;2023-05-27T04:38:13;12.93;;;5.97;;
20458;SDS011;10388;52.314;7.938;2023-05-27T04:40:46;12.17;;;5.07;;
20458;SDS011;10388;52.314;7.938;2023-05-27T04:43:22;12.80;;;6.17;;
20458;SDS011;10388;52.314;7.938;2023-05-27T04:45:53;9.60;;;4.57;;
20458;SDS011;10388;52.314;7.938;2023-05-27T04:48:25;7.33;;;4.80;;
20458;SDS011;10388;52.314;7.938;2023-05-27T04:50:56;11.43;;;5.00;;
20458;SDS011;10388;52.314;7.938;2023-05-27T04:53:27;10.30;;;4.77;;
20458;SDS011;10388;52.314;7.938;2023-05-27T04:55:58;7.53;;;5.70;;
20458;SDS011;10388;52.314;7.938;2023-05-27T04:58:28;13.03;;;6.00;;
20458;SDS011;10388;52.314;7.938;2023-05-27T05:00:59;11.63;;;5.60;;
20458;SDS011;10388;52.314;7.938;2023-05-27T05:03:30;14.07;;;6.00;;
20458;SDS011;10388;52.314;7.938;2023-05-27T05:06:07;12.47;;;5.60;;
20458;SDS011;10388;52.314;7.938;2023-05-27T05:08:37;7.87;;;5.13;;
20458;SDS011;10388;52.314;7.938;2023-05-27T05:11:08;12.33;;;5.30;;
20458;SDS011;10388;52.314;7.938;2023-05-27T05:13:38;12.13;;;5.20;;
20458;SDS011;10388;52.314;7.938;2023-05-27T05:16:09;17.57;;;5.33;;
20458;SDS011;10388;52.314;7.938;2023-05-27T05:18:39;12.27;;;5.33;;
20458;SDS011;10388;52.314;7.938;2023-05-27T05:21:10;10.13;;;5.10;;
20458;SDS011;10388;52.314;7.938;2023-05-27T05:23:40;14.13;;;5.60;;
20458;SDS011;10388;52.314;7.938;2023-05-27T05:26:12;11.13;;;5.33;;
20458;SDS011;10388;52.314;7.938;2023-05-27T05:28:43;10.67;;;5.30;;
20458;SDS011;10388;52.314;7.938;2023-05-27T05:31:13;15.30;;;5.13;;
20458;SDS011;10388;52.314;7.938;2023-05-27T05:33:44;12.27;;;4.87;;
20458;SDS011;10388;52.314;7.938;2023-05-27T05:36:15;15.50;;;6.20;;
20458;SDS011;10388;52.314;7.938;2023-05-27T05:38:45;14.43;;;5.27;;
20458;SDS011;10388;52.314;7.938;2023-05-27T05:41:16;10.97;;;5.10;;
20458;SDS011;10388;52.314;7.938;2023-05-27T05:43:46;12.43;;;4.93;;
20458;SDS011;10388;52.314;7.938;2023-05-27T05:46:17;11.93;;;4.70;;
20458;SDS011;10388;52.314;7.938;2023-05-27T05:48:47;9.97;;;5.17;;
20458;SDS011;10388;52.314;7.938;2023-05-27T05:51:20;14.20;;;5.67;;
20458;SDS011;10388;52.314;7.938;2023-05-27T05:53:51;10.17;;;4.50;;
20458;SDS011;10388;52.314;7.938;2023-05-27T05:56:21;10.93;;;4.90;;
20458;SDS011;10388;52.314;7.938;2023-05-27T05:58:52;10.00;;;4.43;;
20458;SDS011;10388;52.314;7.938;2023-05-27T06:01:22;12.87;;;5.10;;
20458;SDS011;10388;52.314;7.938;2023-05-27T06:03:53;13.57;;;6.10;;
20458;SDS011;10388;52.314;7.938;2023-05-27T06:06:24;13.20;;;5.40;;
20458;SDS011;10388;52.314;7.938;2023-05-27T06:08:55;11.00;;;5.37;;
20458;SDS011;10388;52.314;7.938;2023-05-27T06:11:26;15.97;;;5.77;;
20458;SDS011;10388;52.314;7.938;2023-05-27T06:13:56;16.10;;;4.90;;
20458;SDS011;10388;52.314;7.938;2023-05-27T06:16:27;17.00;;;5.40;;
20458;SDS011;10388;52.314;7.938;2023-05-27T06:18:58;11.40;;;4.90;;
20458;SDS011;10388;52.314;7.938;2023-05-27T06:21:28;16.37;;;5.37;;
20458;SDS011;10388;52.314;7.938;2023-05-27T06:24:02;11.87;;;4.20;;
20458;SDS011;10388;52.314;7.938;2023-05-27T06:26:33;10.33;;;4.10;;
20458;SDS011;10388;52.314;7.938;2023-05-27T06:29:03;12.03;;;4.83;;
20458;SDS011;10388;52.314;7.938;2023-05-27T06:31:34;14.97;;;4.20;;
20458;SDS011;10388;52.314;7.938;2023-05-27T06:34:04;11.37;;;4.37;;
20458;SDS011;10388;52.314;7.938;2023-05-27T06:36:35;11.10;;;4.30;;
20458;SDS011;10388;52.314;7.938;2023-05-27T06:39:05;12.67;;;4.73;;
20458;SDS011;10388;52.314;7.938;2023-05-27T06:41:36;12.70;;;4.43;;
20458;SDS011;10388;52.314;7.938;2023-05-27T06:44:06;12.83;;;4.00;;
20458;SDS011;10388;52.314;7.938;2023-05-27T06:46:37;11.43;;;4.10;;
20458;SDS011;10388;52.314;7.938;2023-05-27T06:49:07;12.83;;;4.90;;
20458;SDS011;10388;52.314;7.938;2023-05-27T06:51:38;10.30;;;3.97;;
20458;SDS011;10388;52.314;7.938;2023-05-27T06:54:08;11.10;;;4.27;;
20458;SDS011;10388;52.314;7.938;2023-05-27T06:56:39;7.80;;;3.90;;
20458;SDS011;10388;52.314;7.938;2023-05-27T06:59:10;13.60;;;4.20;;
20458;SDS011;10388;52.314;7.938;2023-05-27T07:01:40;8.87;;;4.43;;
20458;SDS011;10388;52.314;7.938;2023-05-27T07:04:11;9.03;;;4.20;;
20458;SDS011;10388;52.314;7.938;2023-05-27T07:06:42;8.50;;;3.67;;
20458;SDS011;10388;52.314;7.938;2023-05-27T07:09:13;14.17;;;4.23;;
20458;SDS011;10388;52.314;7.938;2023-05-27T07:11:43;13.67;;;4.30;;
20458;SDS011;10388;52.314;7.938;2023-05-27T07:14:14;10.83;;;4.40;;
20458;SDS011;10388;52.314;7.938;2023-05-27T07:16:45;10.87;;;4.77;;
20458;SDS011;10388;52.314;7.938;2023-05-27T07:19:15;13.20;;;5.67;;
20458;SDS011;10388;52.314;7.938;2023-05-27T07:21:46;10.70;;;4.90;;
20458;SDS011;10388;52.314;7.938;2023-05-27T07:24:16;10.67;;;3.87;;
20458;SDS011;10388;52.314;7.938;2023-05-27T07:26:47;8.63;;;4.57;;
20458;SDS011;10388;52.314;7.938;2023-05-27T07:29:17;14.17;;;4.73;;
20458;SDS011;10388;52.314;7.938;2023-05-27T07:31:48;11.50;;;4.57;;
20458;SDS011;10388;52.314;7.938;2023-05-27T07:34:19;11.80;;;4.47;;
20458;SDS011;10388;52.314;7.938;2023-05-27T07:36:50;11.37;;;4.20;;
20458;SDS011;10388;52.314;7.938;2023-05-27T07:39:21;10.87;;;4.60;;
20458;SDS011;10388;52.314;7.938;2023-05-27T07:41:51;15.03;;;5.03;;
20458;SDS011;10388;52.314;7.938;2023-05-27T07:44:22;13.17;;;5.07;;
20458;SDS011;10388;52.314;7.938;2023-05-27T07:46:52;8.77;;;3.97;;
20458;SDS011;10388;52.314;7.938;2023-05-27T07:49:24;12.27;;;4.17;;
20458;SDS011;10388;52.314;7.938;2023-05-27T07:51:55;8.90;;;4.33;;
20458;SDS011;10388;52.314;7.938;2023-05-27T07:54:25;12.97;;;3.83;;
20458;SDS011;10388;52.314;7.938;2023-05-27T07:56:57;9.17;;;4.03;;
20458;SDS011;10388;52.314;7.938;2023-05-27T07:59:27;10.03;;;3.70;;
20458;SDS011;10388;52.314;7.938;2023-05-27T08:01:59;12.00;;;4.23;;
20458;SDS011;10388;52.314;7.938;2023-05-27T08:04:30;9.17;;;3.80;;
20458;SDS011;10388;52.314;7.938;2023-05-27T08:07:00;11.17;;;4.33;;
20458;SDS011;10388;52.314;7.938;2023-05-27T08:09:31;10.70;;;4.30;;
20458;SDS011;10388;52.314;7.938;2023-05-27T08:12:02;9.10;;;4.10;;
20458;SDS011;10388;52.314;7.938;2023-05-27T08:14:33;13.07;;;4.70;;
20458;SDS011;10388;52.314;7.938;2023-05-27T08:17:08;9.63;;;4.00;;
20458;SDS011;10388;52.314;7.938;2023-05-27T08:19:39;10.27;;;3.93;;
20458;SDS011;10388;52.314;7.938;2023-05-27T08:22:09;7.43;;;4.27;;
20458;SDS011;10388;52.314;7.938;2023-05-27T08:24:40;8.00;;;3.80;;
20458;SDS011;10388;52.314;7.938;2023-05-27T08:27:13;9.70;;;3.90;;
20458;SDS011;10388;52.314;7.938;2023-05-27T08:29:45;10.93;;;4.23;;
20458;SDS011;10388;52.314;7.938;2023-05-27T08:32:15;8.80;;;3.80;;
20458;SDS011;10388;52.314;7.938;2023-05-27T08:34:46;10.20;;;4.23;;
20458;SDS011;10388;52.314;7.938;2023-05-27T08:37:16;13.73;;;4.47;;
20458;SDS011;10388;52.314;7.938;2023-05-27T08:39:47;8.60;;;4.13;;
20458;SDS011;10388;52.314;7.938;2023-05-27T08:42:17;8.80;;;4.07;;
20458;SDS011;10388;52.314;7.938;2023-05-27T08:44:48;8.30;;;3.33;;
20458;SDS011;10388;52.314;7.938;2023-05-27T08:47:18;9.17;;;4.00;;
20458;SDS011;10388;52.314;7.938;2023-05-27T08:49:49;13.87;;;4.73;;
20458;SDS011;10388;52.314;7.938;2023-05-27T08:52:20;10.80;;;4.20;;
20458;SDS011;10388;52.314;7.938;2023-05-27T08:54:51;11.43;;;4.07;;
20458;SDS011;10388;52.314;7.938;2023-05-27T08:57:27;9.33;;;4.00;;
20458;SDS011;10388;52.314;7.938;2023-05-27T08:59:59;11.63;;;3.80;;
20458;SDS011;10388;52.314;7.938;2023-05-27T09:02:30;7.53;;;3.17;;
20458;SDS011;10388;52.314;7.938;2023-05-27T09:05:00;7.47;;;3.40;;
20458;SDS011;10388;52.314;7.938;2023-05-27T09:07:31;9.43;;;3.10;;
20458;SDS011;10388;52.314;7.938;2023-05-27T09:10:01;7.97;;;3.40;;
20458;SDS011;10388;52.314;7.938;2023-05-27T09:12:33;9.33;;;3.70;;
20458;SDS011;10388;52.314;7.938;2023-05-27T09:15:04;8.87;;;3.70;;
20458;SDS011;10388;52.314;7.938;2023-05-27T09:17:40;8.70;;;3.80;;
20458;SDS011;10388;52.314;7.938;2023-05-27T09:20:11;6.87;;;3.53;;
20458;SDS011;10388;52.314;7.938;2023-05-27T09:22:42;7.13;;;2.53;;
20458;SDS011;10388;52.314;7.938;2023-05-27T09:25:13;9.80;;;3.23;;
20458;SDS011;10388;52.314;7.938;2023-05-27T09:27:45;9.07;;;3.33;;
20458;SDS011;10388;52.314;7.938;2023-05-27T09:30:18;5.87;;;3.40;;
20458;SDS011;10388;52.314;7.938;2023-05-27T09:32:50;5.97;;;3.07;;
20458;SDS011;10388;52.314;7.938;2023-05-27T09:35:21;10.77;;;4.03;;
20458;SDS011;10388;52.314;7.938;2023-05-27T09:37:51;8.73;;;3.60;;
20458;SDS011;10388;52.314;7.938;2023-05-27T09:40:22;7.17;;;3.50;;
20458;SDS011;10388;52.314;7.938;2023-05-27T09:42:55;9.60;;;3.30;;
20458;SDS011;10388;52.314;7.938;2023-05-27T09:45:26;7.23;;;3.47;;
20458;SDS011;10388;52.314;7.938;2023-05-27T09:47:58;7.43;;;3.23;;
20458;SDS011;10388;52.314;7.938;2023-05-27T09:50:31;8.80;;;3.07;;
20458;SDS011;10388;52.314;7.938;2023-05-27T09:53:02;10.60;;;3.57;;
20458;SDS011;10388;52.314;7.938;2023-05-27T09:55:34;7.77;;;3.20;;
20458;SDS011;10388;52.314;7.938;2023-05-27T09:58:05;6.87;;;3.13;;
20458;SDS011;10388;52.314;7.938;2023-05-27T10:00:38;5.70;;;3.07;;
20458;SDS011;10388;52.314;7.938;2023-05-27T10:03:10;9.33;;;3.30;;
20458;SDS011;10388;52.314;7.938;2023-05-27T10:05:44;7.57;;;3.33;;
20458;SDS011;10388;52.314;7.938;2023-05-27T10:08:15;7.67;;;2.93;;
20458;SDS011;10388;52.314;7.938;2023-05-27T10:10:46;9.27;;;3.50;;
20458;SDS011;10388;52.314;7.938;2023-05-27T10:13:17;9.73;;;3.73;;
20458;SDS011;10388;52.314;7.938;2023-05-27T10:15:50;7.27;;;3.33;;
20458;SDS011;10388;52.314;7.938;2023-05-27T10:18:22;7.67;;;3.60;;
20458;SDS011;10388;52.314;7.938;2023-05-27T10:20:58;6.50;;;3.17;;
20458;SDS011;10388;52.314;7.938;2023-05-27T10:23:30;13.20;;;3.77;;
20458;SDS011;10388;52.314;7.938;2023-05-27T10:26:05;7.90;;;3.20;;
20458;SDS011;10388;52.314;7.938;2023-05-27T10:28:37;6.60;;;3.53;;
20458;SDS011;10388;52.314;7.938;2023-05-27T10:31:11;7.70;;;3.30;;
20458;SDS011;10388;52.314;7.938;2023-05-27T10:33:45;11.50;;;4.13;;
20458;SDS011;10388;52.314;7.938;2023-05-27T10:36:22;8.67;;;3.33;;
20458;SDS011;10388;52.314;7.938;2023-05-27T10:39:12;9.37;;;3.80;;
20458;SDS011;10388;52.314;7.938;2023-05-27T10:41:49;6.87;;;3.53;;
20458;SDS011;10388;52.314;7.938;2023-05-27T10:44:28;6.83;;;3.87;;
20458;SDS011;10388;52.314;7.938;2023-05-27T10:47:03;7.07;;;3.50;;
20458;SDS011;10388;52.314;7.938;2023-05-27T10:49:45;8.77;;;3.37;;
20458;SDS011;10388;52.314;7.938;2023-05-27T10:52:16;9.83;;;3.73;;
20458;SDS011;10388;52.314;7.938;2023-05-27T10:54:47;6.53;;;3.13;;
20458;SDS011;10388;52.314;7.938;2023-05-27T10:57:22;6.70;;;3.37;;
20458;SDS011;10388;52.314;7.938;2023-05-27T10:59:54;7.93;;;4.03;;
20458;SDS011;10388;52.314;7.938;2023-05-27T11:02:29;11.63;;;4.07;;
20458;SDS011;10388;52.314;7.938;2023-05-27T11:05:01;9.13;;;3.70;;
20458;SDS011;10388;52.314;7.938;2023-05-27T11:07:41;8.37;;;3.40;;
20458;SDS011;10388;52.314;7.938;2023-05-27T11:10:12;8.17;;;3.27;;
20458;SDS011;10388;52.314;7.938;2023-05-27T11:12:43;8.07;;;2.90;;
20458;SDS011;10388;52.314;7.938;2023-05-27T11:15:15;7.93;;;3.90;;
20458;SDS011;10388;52.314;7.938;2023-05-27T11:17:48;7.43;;;3.50;;
20458;SDS011;10388;52.314;7.938;2023-05-27T11:20:18;8.47;;;3.33;;
20458;SDS011;10388;52.314;7.938;2023-05-27T11:22:49;8.67;;;3.30;;
20458;SDS011;10388;52.314;7.938;2023-05-27T11:25:20;9.03;;;3.37;;
20458;SDS011;10388;52.314;7.938;2023-05-27T11:27:51;7.60;;;3.20;;
20458;SDS011;10388;52.314;7.938;2023-05-27T11:30:24;7.33;;;3.30;;
20458;SDS011;10388;52.314;7.938;2023-05-27T11:33:01;6.47;;;3.23;;
20458;SDS011;10388;52.314;7.938;2023-05-27T11:35:33;4.30;;;2.40;;
20458;SDS011;10388;52.314;7.938;2023-05-27T11:38:04;6.47;;;3.20;;
20458;SDS011;10388;52.314;7.938;2023-05-27T11:40:35;7.47;;;2.57;;
20458;SDS011;10388;52.314;7.938;2023-05-27T11:43:06;6.63;;;2.70;;
20458;SDS011;10388;52.314;7.938;2023-05-27T11:45:37;6.07;;;2.70;;
20458;SDS011;10388;52.314;7.938;2023-05-27T11:48:08;5.43;;;3.10;;
20458;SDS011;10388;52.314;7.938;2023-05-27T11:50:39;6.80;;;3.00;;
20458;SDS011;10388;52.314;7.938;2023-05-27T11:53:10;5.07;;;2.80;;
20458;SDS011;10388;52.314;7.938;2023-05-27T11:55:40;6.50;;;3.13;;
20458;SDS011;10388;52.314;7.938;2023-05-27T11:58:11;6.93;;;2.70;;
20458;SDS011;10388;52.314;7.938;2023-05-27T12:00:41;5.57;;;3.20;;
20458;SDS011;10388;52.314;7.938;2023-05-27T12:03:12;6.00;;;2.73;;
20458;SDS011;10388;52.314;7.938;2023-05-27T12:05:42;6.37;;;2.70;;
20458;SDS011;10388;52.314;7.938;2023-05-27T12:08:13;6.07;;;2.93;;
20458;SDS011;10388;52.314;7.938;2023-05-27T12:10:43;5.03;;;2.70;;
20458;SDS011;10388;52.314;7.938;2023-05-27T12:13:14;6.13;;;2.93;;
20458;SDS011;10388;52.314;7.938;2023-05-27T12:15:45;5.70;;;3.00;;
20458;SDS011;10388;52.314;7.938;2023-05-27T12:18:16;6.70;;;2.57;;
20458;SDS011;10388;52.314;7.938;2023-05-27T12:20:46;5.20;;;2.43;;
20458;SDS011;10388;52.314;7.938;2023-05-27T12:23:17;4.30;;;2.53;;
20458;SDS011;10388;52.314;7.938;2023-05-27T12:25:48;6.60;;;2.60;;
20458;SDS011;10388;52.314;7.938;2023-05-27T12:28:18;7.00;;;3.03;;
20458;SDS011;10388;52.314;7.938;2023-05-27T12:30:49;13.27;;;2.70;;
20458;SDS011;10388;52.314;7.938;2023-05-27T12:33:19;5.60;;;2.57;;
20458;SDS011;10388;52.314;7.938;2023-05-27T12:35:50;6.43;;;2.70;;
20458;SDS011;10388;52.314;7.938;2023-05-27T12:38:21;5.53;;;2.50;;
20458;SDS011;10388;52.314;7.938;2023-05-27T12:40:52;5.90;;;2.60;;
20458;SDS011;10388;52.314;7.938;2023-05-27T12:43:23;5.60;;;2.83;;
20458;SDS011;10388;52.314;7.938;2023-05-27T12:45:54;7.00;;;2.63;;
20458;SDS011;10388;52.314;7.938;2023-05-27T12:48:24;4.87;;;2.80;;
20458;SDS011;10388;52.314;7.938;2023-05-27T12:50:55;6.50;;;2.70;;
20458;SDS011;10388;52.314;7.938;2023-05-27T12:53:25;5.30;;;2.33;;
20458;SDS011;10388;52.314;7.938;2023-05-27T12:55:56;5.40;;;2.33;;
20458;SDS011;10388;52.314;7.938;2023-05-27T12:58:27;7.20;;;3.10;;
20458;SDS011;10388;52.314;7.938;2023-05-27T13:00:57;6.47;;;2.47;;
20458;SDS011;10388;52.314;7.938;2023-05-27T13:03:28;6.23;;;2.83;;
20458;SDS011;10388;52.314;7.938;2023-05-27T13:05:58;5.83;;;2.60;;
20458;SDS011;10388;52.314;7.938;2023-05-27T13:08:29;7.07;;;3.03;;
20458;SDS011;10388;52.314;7.938;2023-05-27T13:10:59;4.73;;;2.47;;
20458;SDS011;10388;52.314;7.938;2023-05-27T13:13:30;5.27;;;2.47;;
20458;SDS011;10388;52.314;7.938;2023-05-27T13:16:00;5.33;;;2.80;;
20458;SDS011;10388;52.314;7.938;2023-05-27T13:18:31;6.83;;;2.97;;
20458;SDS011;10388;52.314;7.938;2023-05-27T13:21:02;8.97;;;2.97;;
20458;SDS011;10388;52.314;7.938;2023-05-27T13:23:33;5.57;;;2.67;;
20458;SDS011;10388;52.314;7.938;2023-05-27T13:26:03;4.80;;;2.30;;
20458;SDS011;10388;52.314;7.938;2023-05-27T13:28:35;7.20;;;3.00;;
20458;SDS011;10388;52.314;7.938;2023-05-27T13:31:06;6.97;;;3.13;;
20458;SDS011;10388;52.314;7.938;2023-05-27T13:33:38;7.27;;;3.33;;
20458;SDS011;10388;52.314;7.938;2023-05-27T13:36:10;9.43;;;3.00;;
20458;SDS011;10388;52.314;7.938;2023-05-27T13:38:40;3.33;;;2.10;;
20458;SDS011;10388;52.314;7.938;2023-05-27T13:41:11;5.57;;;2.37;;
20458;SDS011;10388;52.314;7.938;2023-05-27T13:43:42;5.83;;;2.80;;
20458;SDS011;10388;52.314;7.938;2023-05-27T13:46:12;6.50;;;2.90;;
20458;SDS011;10388;52.314;7.938;2023-05-27T13:48:43;5.47;;;2.70;;
20458;SDS011;10388;52.314;7.938;2023-05-27T13:51:13;6.40;;;2.50;;
20458;SDS011;10388;52.314;7.938;2023-05-27T13:53:44;6.17;;;2.37;;
20458;SDS011;10388;52.314;7.938;2023-05-27T13:56:14;5.53;;;2.50;;
20458;SDS011;10388;52.314;7.938;2023-05-27T13:58:45;5.97;;;2.60;;
20458;SDS011;10388;52.314;7.938;2023-05-27T14:01:16;5.90;;;2.40;;
20458;SDS011;10388;52.314;7.938;2023-05-27T14:03:46;6.77;;;2.50;;
20458;SDS011;10388;52.314;7.938;2023-05-27T14:06:17;3.83;;;2.43;;
20458;SDS011;10388;52.314;7.938;2023-05-27T14:08:47;6.43;;;2.30;;
20458;SDS011;10388;52.314;7.938;2023-05-27T14:11:18;5.53;;;2.40;;
20458;SDS011;10388;52.314;7.938;2023-05-27T14:13:49;6.23;;;2.33;;
20458;SDS011;10388;52.314;7.938;2023-05-27T14:16:20;4.03;;;2.43;;
20458;SDS011;10388;52.314;7.938;2023-05-27T14:18:51;11.77;;;2.70;;
20458;SDS011;10388;52.314;7.938;2023-05-27T14:21:21;5.13;;;2.50;;
20458;SDS011;10388;52.314;7.938;2023-05-27T14:23:52;4.23;;;2.53;;
20458;SDS011;10388;52.314;7.938;2023-05-27T14:26:22;5.60;;;2.30;;
20458;SDS011;10388;52.314;7.938;2023-05-27T14:28:53;3.70;;;2.40;;
20458;SDS011;10388;52.314;7.938;2023-05-27T14:31:25;4.67;;;2.27;;
20458;SDS011;10388;52.314;7.938;2023-05-27T14:33:55;4.67;;;2.77;;
20458;SDS011;10388;52.314;7.938;2023-05-27T14:36:26;5.37;;;2.30;;
20458;SDS011;10388;52.314;7.938;2023-05-27T14:38:56;4.30;;;2.17;;
20458;SDS011;10388;52.314;7.938;2023-05-27T14:41:27;3.40;;;2.20;;
20458;SDS011;10388;52.314;7.938;2023-05-27T14:43:58;5.17;;;2.43;;
20458;SDS011;10388;52.314;7.938;2023-05-27T14:46:28;4.37;;;2.20;;
20458;SDS011;10388;52.314;7.938;2023-05-27T14:48:59;5.97;;;2.47;;
20458;SDS011;10388;52.314;7.938;2023-05-27T14:51:29;4.50;;;2.40;;
20458;SDS011;10388;52.314;7.938;2023-05-27T14:54:00;4.73;;;2.20;;
20458;SDS011;10388;52.314;7.938;2023-05-27T14:56:30;6.63;;;2.57;;
20458;SDS011;10388;52.314;7.938;2023-05-27T14:59:01;4.13;;;2.27;;
20458;SDS011;10388;52.314;7.938;2023-05-27T15:01:32;3.97;;;2.20;;
20458;SDS011;10388;52.314;7.938;2023-05-27T15:04:02;6.80;;;2.60;;
20458;SDS011;10388;52.314;7.938;2023-05-27T15:06:34;4.33;;;2.30;;
20458;SDS011;10388;52.314;7.938;2023-05-27T15:09:05;6.77;;;2.47;;
20458;SDS011;10388;52.314;7.938;2023-05-27T15:11:37;5.87;;;2.50;;
20458;SDS011;10388;52.314;7.938;2023-05-27T15:14:08;6.23;;;2.27;;
20458;SDS011;10388;52.314;7.938;2023-05-27T15:16:39;5.50;;;2.40;;
20458;SDS011;10388;52.314;7.938;2023-05-27T15:19:09;3.13;;;2.03;;